Time;durP1;ratioP1;P1;durP2;ratioP2;P2;SDS_P1;SDS_P2;PMS_P1;PMS_P2;Temp;Humidity;BMP_temperature;BMP_pressure;BME280_temperature;BME280_humidity;BME280_pressure;Samples;Min_cycle;Max_cycle;Signal;HPM_P1;HPM_P2
2022/07/28 00:00:32;;;;;;;7.82;4.03;;;;;;;;;;8434689;28;20484;-81
2022/07/28 00:04:43;;;;;;;;;;;;;;;;;;8434853;28;20411;-83
2022/07/28 00:08:46;;;;;;;;;;;;;;;;;;8434645;28;20372;-81
2022/07/28 00:12:49;;;;;;;5.55;3.85;;;;;;;;;;8432373;28;19920;-81
2022/07/28 00:16:51;;;;;;;6.90;4.10;;;;;;;;;;8433943;28;20395;-81
2022/07/28 00:21:00;;;;;;;6.32;3.72;;;;;;;;;;8433388;28;20510;-81
2022/07/28 00:25:10;;;;;;;6.95;3.53;;;;;;;;;;8432995;28;20074;-81
2022/07/28 00:29:13;;;;;;;5.75;4.10;;;;;;;;;;8433901;28;20044;-82
2022/07/28 00:33:15;;;;;;;7.25;4.18;;;;;;;;;;8432693;28;20051;-81
2022/07/28 00:37:18;;;;;;;5.75;3.42;;;;;;;;;;8432908;28;20118;-82
2022/07/28 00:41:22;;;;;;;6.22;3.50;;;;;;;;;;8433042;28;20048;-81
2022/07/28 00:45:24;;;;;;;10.45;3.78;;;;;;;;;;8432357;28;20048;-81
2022/07/28 00:49:27;;;;;;;7.68;3.70;;;;;;;;;;8432928;28;20044;-85
2022/07/28 00:53:30;;;;;;;5.45;3.65;;;;;;;;;;8432601;28;20043;-81
2022/07/28 00:57:34;;;;;;;5.22;3.53;;;;;;;;;;8432144;28;20051;-81
2022/07/28 01:01:37;;;;;;;8.88;4.20;;;;;;;;;;8432687;28;20047;-81
2022/07/28 01:05:50;;;;;;;6.35;3.90;;;;;;;;;;8432537;28;20377;-81
2022/07/28 01:10:02;;;;;;;6.90;3.72;;;;;;;;;;8432356;28;20047;-82
2022/07/28 01:14:10;;;;;;;7.90;4.43;;;;;;;;;;8432784;28;20081;-81
2022/07/28 01:18:20;;;;;;;7.80;4.10;;;;;;;;;;8437209;28;20144;-81
2022/07/28 01:22:25;;;;;;;5.93;4.03;;;;;;;;;;8443606;28;20063;-81
2022/07/28 01:26:53;;;;;;;6.85;4.00;;;;;;;;;;8442345;28;20104;-82
2022/07/28 01:30:58;;;;;;;5.85;3.83;;;;;;;;;;8433198;28;20491;-81
2022/07/28 01:35:08;;;;;;;5.93;4.22;;;;;;;;;;8433436;28;20044;-82
2022/07/28 01:39:14;;;;;;;7.80;4.32;;;;;;;;;;8415422;28;20537;-81
2022/07/28 01:43:22;;;;;;;9.38;3.95;;;;;;;;;;8428037;28;20048;-81
2022/07/28 01:47:29;;;;;;;7.45;3.97;;;;;;;;;;8432375;28;20119;-83
2022/07/28 01:51:33;;;;;;;8.07;4.25;;;;;;;;;;8431133;28;20050;-82
2022/07/28 01:55:37;;;;;;;7.45;4.40;;;;;;;;;;8430345;28;20044;-81
2022/07/28 01:59:41;;;;;;;8.73;4.38;;;;;;;;;;8430874;28;20040;-81
2022/07/28 02:03:47;;;;;;;8.52;5.20;;;;;;;;;;8430282;28;20070;-81
2022/07/28 02:07:51;;;;;;;12.82;5.32;;;;;;;;;;8430277;28;20040;-81
2022/07/28 02:11:55;;;;;;;10.55;4.93;;;;;;;;;;8426708;28;20472;-82
2022/07/28 02:15:58;;;;;;;10.07;5.22;;;;;;;;;;8419532;28;20053;-81
2022/07/28 02:20:05;;;;;;;9.00;5.15;;;;;;;;;;8412721;28;20105;-81
2022/07/28 02:24:09;;;;;;;9.70;5.20;;;;;;;;;;8429862;28;20045;-82
2022/07/28 02:28:13;;;;;;;10.98;5.75;;;;;;;;;;8415623;28;20048;-81
2022/07/28 02:32:22;;;;;;;24.73;7.15;;;;;;;;;;8429833;28;20051;-81
2022/07/28 02:36:28;;;;;;;16.73;8.50;;;;;;;;;;8422562;28;20048;-82
2022/07/28 02:40:36;;;;;;;10.60;6.38;;;;;;;;;;8434583;28;20105;-81
2022/07/28 02:44:42;;;;;;;14.30;7.07;;;;;;;;;;8427898;28;20063;-81
2022/07/28 02:48:48;;;;;;;13.15;8.05;;;;;;;;;;8431769;28;20060;-81
2022/07/28 02:52:54;;;;;;;14.07;10.32;;;;;;;;;;8436912;28;20046;-81
2022/07/28 02:56:59;;;;;;;14.02;10.02;;;;;;;;;;8436174;28;20048;-81
2022/07/28 03:01:02;;;;;;;15.00;8.23;;;;;;;;;;8432412;28;20481;-82
2022/07/28 03:05:06;;;;;;;12.13;7.72;;;;;;;;;;8426241;28;20070;-81
2022/07/28 03:09:11;;;;;;;11.25;7.68;;;;;;;;;;8435591;28;20569;-83
2022/07/28 03:13:13;;;;;;;11.45;8.18;;;;;;;;;;8435651;28;20123;-82
2022/07/28 03:17:16;;;;;;;15.45;7.22;;;;;;;;;;8435328;28;20055;-82
2022/07/28 03:21:19;;;;;;;12.38;7.32;;;;;;;;;;8435416;28;20044;-81
2022/07/28 03:25:27;;;;;;;9.80;6.15;;;;;;;;;;8417242;28;20055;-82
2022/07/28 03:29:32;;;;;;;9.35;6.45;;;;;;;;;;8412392;28;20047;-81
2022/07/28 03:33:35;;;;;;;9.20;6.43;;;;;;;;;;8434901;28;20044;-81
2022/07/28 03:37:45;;;;;;;9.80;5.63;;;;;;;;;;8435320;28;20051;-81
2022/07/28 03:41:50;;;;;;;7.10;4.65;;;;;;;;;;8434745;28;20510;-81
2022/07/28 03:45:53;;;;;;;5.90;4.47;;;;;;;;;;8429329;28;20041;-82
2022/07/28 03:49:55;;;;;;;9.32;4.78;;;;;;;;;;8415362;28;20044;-84
2022/07/28 03:53:58;;;;;;;6.90;4.65;;;;;;;;;;8431211;28;20480;-83
2022/07/28 03:58:02;;;;;;;6.75;4.82;;;;;;;;;;8434621;28;20470;-82
2022/07/28 04:02:05;;;;;;;8.32;4.25;;;;;;;;;;8434693;28;20483;-82
2022/07/28 04:06:07;;;;;;;10.93;4.68;;;;;;;;;;8419604;28;20044;-82
2022/07/28 04:10:12;;;;;;;6.88;4.35;;;;;;;;;;8434436;28;20048;-81
2022/07/28 04:14:16;;;;;;;9.55;5.45;;;;;;;;;;8433858;28;20051;-81
2022/07/28 04:18:19;;;;;;;10.98;6.18;;;;;;;;;;8434031;28;20070;-93
2022/07/28 04:22:21;;;;;;;9.85;6.03;;;;;;;;;;8433806;28;20048;-81
2022/07/28 04:26:24;;;;;;;10.60;6.13;;;;;;;;;;8419376;28;20054;-82
2022/07/28 04:30:28;;;;;;;8.88;5.43;;;;;;;;;;8429397;28;20064;-81
2022/07/28 04:34:32;;;;;;;8.93;5.57;;;;;;;;;;8409414;28;20543;-81
2022/07/28 04:38:35;;;;;;;11.05;6.28;;;;;;;;;;8432844;28;20067;-81
2022/07/28 04:42:38;;;;;;;8.48;4.70;;;;;;;;;;8426406;28;20044;-82
2022/07/28 04:46:43;;;;;;;16.92;7.78;;;;;;;;;;8399208;28;20073;-83
2022/07/28 04:51:09;;;;;;;11.50;5.75;;;;;;;;;;8427229;28;20048;-81
2022/07/28 04:55:15;;;;;;;8.38;5.90;;;;;;;;;;8419815;28;20135;-83
2022/07/28 04:59:19;;;;;;;8.40;5.63;;;;;;;;;;8431299;28;20052;-81
2022/07/28 05:03:28;;;;;;;9.20;5.35;;;;;;;;;;8426697;28;20090;-81
2022/07/28 05:07:33;;;;;;;9.23;4.95;;;;;;;;;;8405798;28;20047;-82
2022/07/28 05:11:37;;;;;;;9.85;4.65;;;;;;;;;;8429131;28;20067;-81
2022/07/28 05:15:41;;;;;;;11.68;4.30;;;;;;;;;;8431407;28;20044;-82
2022/07/28 05:19:46;;;;;;;9.00;3.92;;;;;;;;;;8430500;28;20081;-84
2022/07/28 05:23:52;;;;;;;7.97;3.65;;;;;;;;;;8431172;28;20060;-82
2022/07/28 05:27:56;;;;;;;8.45;4.40;;;;;;;;;;8428588;28;20106;-83
2022/07/28 05:32:01;;;;;;;6.00;3.30;;;;;;;;;;8410121;28;20044;-82
2022/07/28 05:36:08;;;;;;;6.50;3.72;;;;;;;;;;8424032;28;20052;-82
2022/07/28 05:40:17;;;;;;;9.13;3.72;;;;;;;;;;8430653;28;20044;-82
2022/07/28 05:44:24;;;;;;;7.15;2.70;;;;;;;;;;8430408;28;20093;-82
2022/07/28 05:48:30;;;;;;;7.78;2.92;;;;;;;;;;8405480;28;20126;-81
2022/07/28 05:52:37;;;;;;;4.28;2.70;;;;;;;;;;8429896;28;20586;-81
2022/07/28 05:56:44;;;;;;;6.28;2.50;;;;;;;;;;8429541;28;20075;-81
2022/07/28 06:00:49;;;;;;;4.55;2.42;;;;;;;;;;8429850;28;20043;-82
2022/07/28 06:04:53;;;;;;;7.78;2.50;;;;;;;;;;8430415;28;20040;-81
2022/07/28 06:08:58;;;;;;;4.18;2.50;;;;;;;;;;8430000;28;20098;-81
2022/07/28 06:13:04;;;;;;;7.78;2.50;;;;;;;;;;8421563;28;20544;-82
2022/07/28 06:17:07;;;;;;;4.18;2.05;;;;;;;;;;8422541;28;20044;-83
2022/07/28 06:21:10;;;;;;;8.48;2.95;;;;;;;;;;8422006;28;20044;-82
2022/07/28 06:25:17;;;;;;;5.45;2.20;;;;;;;;;;8429451;28;20592;-82
2022/07/28 06:29:21;;;;;;;5.75;2.20;;;;;;;;;;8421121;28;20044;-82
2022/07/28 06:33:24;;;;;;;5.20;1.77;;;;;;;;;;8422477;28;20044;-82
2022/07/28 06:37:29;;;;;;;5.85;2.13;;;;;;;;;;8410744;28;20618;-82
2022/07/28 06:41:34;;;;;;;6.80;2.85;;;;;;;;;;8399669;28;20052;-83
2022/07/28 06:45:39;;;;;;;8.48;3.03;;;;;;;;;;8424807;28;20395;-83
2022/07/28 06:49:42;;;;;;;4.57;2.60;;;;;;;;;;8424199;28;20594;-83
2022/07/28 06:54:02;;;;;;;7.50;2.70;;;;;;;;;;8424058;28;20056;-82
2022/07/28 06:58:25;;;;;;;5.93;2.25;;;;;;;;;;8411229;28;20045;-84
2022/07/28 07:02:30;;;;;;;6.05;2.30;;;;;;;;;;8418494;28;20052;-86
2022/07/28 07:06:34;;;;;;;5.03;2.17;;;;;;;;;;8422408;28;20040;-82
2022/07/28 07:10:38;;;;;;;4.38;2.40;;;;;;;;;;8423356;28;20055;-82
2022/07/28 07:14:44;;;;;;;3.67;2.10;;;;;;;;;;8423206;28;20469;-82
2022/07/28 07:18:51;;;;;;;6.15;2.22;;;;;;;;;;8412008;28;20055;-82
2022/07/28 07:22:54;;;;;;;5.85;2.30;;;;;;;;;;8420157;28;20419;-82
2022/07/28 07:26:57;;;;;;;4.07;1.80;;;;;;;;;;8421674;28;20048;-82
2022/07/28 07:31:02;;;;;;;4.70;2.00;;;;;;;;;;8427189;28;20060;-83
2022/07/28 07:35:08;;;;;;;5.30;2.30;;;;;;;;;;8431378;28;20048;-84
2022/07/28 07:39:14;;;;;;;4.40;2.10;;;;;;;;;;8411383;28;20047;-84
2022/07/28 07:43:19;;;;;;;9.48;2.10;;;;;;;;;;8406139;28;20091;-85
2022/07/28 07:47:26;;;;;;;5.30;2.20;;;;;;;;;;8422962;28;20047;-83
2022/07/28 07:51:30;;;;;;;4.93;1.90;;;;;;;;;;8411549;28;20040;-82
2022/07/28 07:55:34;;;;;;;5.13;2.03;;;;;;;;;;8403681;28;20803;-83
2022/07/28 07:59:38;;;;;;;8.85;1.90;;;;;;;;;;8420952;28;20411;-83
2022/07/28 08:03:43;;;;;;;3.72;1.67;;;;;;;;;;8426943;28;20074;-83
2022/07/28 08:07:46;;;;;;;6.80;2.03;;;;;;;;;;8424383;28;20589;-81
2022/07/28 08:11:49;;;;;;;4.55;1.70;;;;;;;;;;8424224;28;20051;-84
2022/07/28 08:15:53;;;;;;;4.50;1.80;;;;;;;;;;8420414;28;20051;-83
2022/07/28 08:19:57;;;;;;;5.50;1.98;;;;;;;;;;8422488;28;20039;-81
2022/07/28 08:24:00;;;;;;;5.50;2.60;;;;;;;;;;8424719;28;20048;-81
2022/07/28 08:28:04;;;;;;;4.63;2.88;;;;;;;;;;8415466;28;20548;-83
2022/07/28 08:32:08;;;;;;;6.00;2.10;;;;;;;;;;8425864;28;20056;-81
2022/07/28 08:36:12;;;;;;;3.05;1.63;;;;;;;;;;8423385;28;20131;-83
2022/07/28 08:40:16;;;;;;;3.85;1.80;;;;;;;;;;8424551;28;20105;-81
2022/07/28 08:44:21;;;;;;;3.22;1.90;;;;;;;;;;8416448;28;20048;-84
2022/07/28 08:48:32;;;;;;;4.95;1.80;;;;;;;;;;8404854;28;20037;-83
2022/07/28 08:52:40;;;;;;;4.97;1.77;;;;;;;;;;8403898;28;20044;-82
2022/07/28 08:56:45;;;;;;;4.82;2.30;;;;;;;;;;8427799;28;20078;-82
2022/07/28 09:00:49;;;;;;;2.53;1.55;;;;;;;;;;8425397;28;20064;-84
2022/07/28 09:04:55;;;;;;;4.53;1.77;;;;;;;;;;8409922;28;20405;-81
2022/07/28 09:09:01;;;;;;;4.82;1.98;;;;;;;;;;8413360;28;20594;-84
2022/07/28 09:13:05;;;;;;;4.97;2.20;;;;;;;;;;8373611;28;20052;-84
2022/07/28 09:17:11;;;;;;;3.08;1.52;;;;;;;;;;8421220;28;20051;-85
2022/07/28 09:21:15;;;;;;;3.50;1.80;;;;;;;;;;8419471;28;20067;-81
2022/07/28 09:25:21;;;;;;;2.85;1.70;;;;;;;;;;8420126;28;20082;-85
2022/07/28 09:29:24;;;;;;;3.67;1.60;;;;;;;;;;8420420;28;20044;-87
2022/07/28 09:33:28;;;;;;;4.03;1.80;;;;;;;;;;8420908;28;20654;-83
2022/07/28 09:37:32;;;;;;;3.35;1.98;;;;;;;;;;8415180;28;20048;-82
2022/07/28 09:41:49;;;;;;;7.40;1.73;;;;;;;;;;8405791;28;20079;-83
2022/07/28 09:46:04;;;;;;;4.82;2.00;;;;;;;;;;8418515;28;20052;-83
2022/07/28 09:50:08;;;;;;;7.63;1.75;;;;;;;;;;8414068;28;20044;-82
2022/07/28 09:54:13;;;;;;;4.45;1.95;;;;;;;;;;8419503;28;20095;-82
2022/07/28 09:58:18;;;;;;;3.60;1.67;;;;;;;;;;8422274;28;20062;-82
2022/07/28 10:02:24;;;;;;;3.85;1.70;;;;;;;;;;8418628;28;20044;-82
2022/07/28 10:06:31;;;;;;;4.72;1.80;;;;;;;;;;8419165;28;20047;-82
2022/07/28 10:10:34;;;;;;;5.70;1.50;;;;;;;;;;8418747;28;20044;-86
2022/07/28 10:14:38;;;;;;;3.28;1.60;;;;;;;;;;8423801;28;20486;-85
2022/07/28 10:18:42;;;;;;;2.65;1.90;;;;;;;;;;8421304;28;20048;-83
2022/07/28 10:22:45;;;;;;;5.47;1.60;;;;;;;;;;8419656;28;20066;-83
2022/07/28 10:26:49;;;;;;;3.03;1.60;;;;;;;;;;8414202;28;20059;-83
2022/07/28 10:31:02;;;;;;;4.22;1.90;;;;;;;;;;8413660;28;20040;-82
2022/07/28 10:35:16;;;;;;;4.82;1.70;;;;;;;;;;8403058;28;20506;-83
2022/07/28 10:39:37;;;;;;;2.95;1.70;;;;;;;;;;8424619;28;20044;-83
2022/07/28 10:43:50;;;;;;;2.92;1.48;;;;;;;;;;8425305;28;20055;-83
2022/07/28 10:47:59;;;;;;;4.47;1.58;;;;;;;;;;8419225;28;20119;-80
2022/07/28 10:52:06;;;;;;;11.73;1.83;;;;;;;;;;8426169;28;20044;-81
2022/07/28 10:56:16;;;;;;;3.50;1.67;;;;;;;;;;8419039;28;20119;-81
2022/07/28 11:00:24;;;;;;;5.30;1.50;;;;;;;;;;8431112;28;20044;-81
2022/07/28 11:05:00;;;;;;;2.88;1.50;;;;;;;;;;8420669;28;20046;-81
2022/07/28 11:09:25;;;;;;;2.42;1.58;;;;;;;;;;8429529;28;20059;-81
2022/07/28 11:13:30;;;;;;;2.10;1.50;;;;;;;;;;8432161;28;20093;-82
2022/07/28 11:17:35;;;;;;;4.55;1.80;;;;;;;;;;8433944;28;20488;-80
2022/07/28 11:22:20;;;;;;;3.55;1.60;;;;;;;;;;8433943;28;20063;-80
2022/07/28 11:26:50;;;;;;;4.05;1.48;;;;;;;;;;8427433;28;20052;-81
2022/07/28 11:31:00;;;;;;;3.45;1.52;;;;;;;;;;8430167;28;20047;-81
2022/07/28 11:35:12;;;;;;;4.05;1.52;;;;;;;;;;8424182;28;20549;-80
2022/07/28 11:39:28;;;;;;;5.63;1.73;;;;;;;;;;8431650;28;20087;-83
2022/07/28 11:43:37;;;;;;;2.95;1.45;;;;;;;;;;8433034;28;20494;-81
2022/07/28 11:47:52;;;;;;;2.90;1.55;;;;;;;;;;8395562;28;20064;-80
2022/07/28 11:52:23;;;;;;;2.05;1.45;;;;;;;;;;8420189;28;20052;-82
2022/07/28 11:56:36;;;;;;;4.10;1.60;;;;;;;;;;8414108;28;20488;-81
2022/07/28 12:01:08;;;;;;;6.22;1.80;;;;;;;;;;8434660;28;20484;-87
2022/07/28 12:05:24;;;;;;;4.50;1.73;;;;;;;;;;8422647;28;20040;-81
2022/07/28 12:09:31;;;;;;;2.45;1.50;;;;;;;;;;8430135;28;20036;-81
2022/07/28 12:13:36;;;;;;;4.45;1.65;;;;;;;;;;8426304;28;20044;-86
2022/07/28 12:17:39;;;;;;;2.42;1.52;;;;;;;;;;8433294;28;20495;-80
2022/07/28 12:21:44;;;;;;;4.32;1.70;;;;;;;;;;8432629;28;20415;-95
2022/07/28 12:25:48;;;;;;;4.03;1.60;;;;;;;;;;8433118;28;20051;-80
2022/07/28 12:29:59;;;;;;;6.00;1.80;;;;;;;;;;8434148;28;20047;-80
2022/07/28 12:34:04;;;;;;;2.92;1.65;;;;;;;;;;8419898;28;20526;-80
2022/07/28 12:38:08;;;;;;;3.15;1.50;;;;;;;;;;8422491;28;20045;-80
2022/07/28 12:42:13;;;;;;;3.40;1.52;;;;;;;;;;8430207;28;20040;-80
2022/07/28 12:46:22;;;;;;;3.47;1.63;;;;;;;;;;8432768;28;20047;-80
2022/07/28 12:50:26;;;;;;;3.65;1.52;;;;;;;;;;8442391;28;20036;-80
2022/07/28 12:54:36;;;;;;;3.38;1.77;;;;;;;;;;8450460;28;20048;-80
2022/07/28 12:58:39;;;;;;;4.07;1.50;;;;;;;;;;8450956;28;20115;-81
2022/07/28 13:02:44;;;;;;;2.83;1.58;;;;;;;;;;8432281;28;20412;-80
2022/07/28 13:06:56;;;;;;;3.95;1.50;;;;;;;;;;8410358;28;20044;-80
2022/07/28 13:10:59;;;;;;;;;;;;;;;;;;8433956;28;20047;-81
2022/07/28 13:15:09;;;;;;;5.20;1.80;;;;;;;;;;8433102;28;19928;-96
2022/07/28 13:19:22;;;;;;;3.08;1.70;;;;;;;;;;8433115;28;20048;-81
2022/07/28 13:23:25;;;;;;;4.35;1.80;;;;;;;;;;8433636;28;20096;-81
2022/07/28 13:27:30;;;;;;;2.25;1.40;;;;;;;;;;8424708;28;20086;-81
2022/07/28 13:31:34;;;;;;;5.72;1.58;;;;;;;;;;8426019;28;20435;-82
2022/07/28 13:35:39;;;;;;;4.32;2.00;;;;;;;;;;8434163;28;20048;-80
2022/07/28 13:39:43;;;;;;;4.93;1.70;;;;;;;;;;8418089;28;20043;-84
2022/07/28 13:43:47;;;;;;;4.20;2.10;;;;;;;;;;8425723;28;20064;-81
2022/07/28 13:47:53;;;;;;;4.38;1.58;;;;;;;;;;8427137;28;20036;-81
2022/07/28 13:52:00;;;;;;;3.28;1.50;;;;;;;;;;8425524;28;20044;-81
2022/07/28 13:56:06;;;;;;;4.32;1.58;;;;;;;;;;8417497;28;20051;-81
2022/07/28 14:00:10;;;;;;;2.55;1.52;;;;;;;;;;8420869;28;20044;-81
2022/07/28 14:04:14;;;;;;;4.20;1.65;;;;;;;;;;8419364;28;20056;-81
2022/07/28 14:08:22;;;;;;;8.07;2.58;;;;;;;;;;8391269;28;20472;-81
2022/07/28 14:12:27;;;;;;;5.95;2.28;;;;;;;;;;8409748;28;20043;-80
2022/07/28 14:16:44;;;;;;;5.15;1.67;;;;;;;;;;8392087;28;20464;-80
2022/07/28 14:20:55;;;;;;;3.88;1.73;;;;;;;;;;8422682;28;20475;-85
2022/07/28 14:25:12;;;;;;;3.58;1.80;;;;;;;;;;8427145;28;20048;-81
2022/07/28 14:29:28;;;;;;;2.55;1.52;;;;;;;;;;8417116;28;20044;-81
2022/07/28 14:34:05;;;;;;;4.35;1.60;;;;;;;;;;8434576;28;20040;-82
2022/07/28 14:38:15;;;;;;;3.90;2.03;;;;;;;;;;8413454;28;20514;-81
2022/07/28 14:42:27;;;;;;;3.72;1.50;;;;;;;;;;8428545;28;20457;-80
2022/07/28 14:46:44;;;;;;;4.00;1.67;;;;;;;;;;8432336;28;20565;-82
2022/07/28 14:51:04;;;;;;;8.52;4.25;;;;;;;;;;8436424;28;20044;-81
2022/07/28 14:55:09;;;;;;;5.15;2.22;;;;;;;;;;8439364;28;20478;-86
2022/07/28 14:59:14;;;;;;;5.22;2.60;;;;;;;;;;8437978;28;20043;-80
2022/07/28 15:03:20;;;;;;;4.63;2.05;;;;;;;;;;8441692;28;20086;-81
2022/07/28 15:07:25;;;;;;;3.42;1.70;;;;;;;;;;8435598;28;20047;-95
2022/07/28 15:11:29;;;;;;;5.20;1.88;;;;;;;;;;8439536;28;20056;-80
2022/07/28 15:15:36;;;;;;;5.75;1.92;;;;;;;;;;8440900;28;20044;-80
2022/07/28 15:19:42;;;;;;;2.67;1.60;;;;;;;;;;8447664;28;20495;-81
2022/07/28 15:23:48;;;;;;;8.25;4.55;;;;;;;;;;8443890;28;20077;-80
2022/07/28 15:27:53;;;;;;;5.32;2.20;;;;;;;;;;8439625;28;20044;-85
2022/07/28 15:32:01;;;;;;;3.20;1.60;;;;;;;;;;8448414;28;20043;-87
2022/07/28 15:36:06;;;;;;;3.60;2.00;;;;;;;;;;8448319;28;20040;-82
2022/07/28 15:40:11;;;;;;;5.93;2.10;;;;;;;;;;8442541;28;20421;-81
2022/07/28 15:44:15;;;;;;;8.13;3.42;;;;;;;;;;8451359;28;20036;-91
2022/07/28 15:48:20;;;;;;;5.60;2.10;;;;;;;;;;8446606;28;20066;-81
2022/07/28 15:52:24;;;;;;;4.47;1.52;;;;;;;;;;8441112;28;20123;-81
2022/07/28 15:56:28;;;;;;;22.65;10.55;;;;;;;;;;8416225;28;20052;-85
2022/07/28 16:00:38;;;;;;;11.70;5.65;;;;;;;;;;8433941;28;20846;-82
2022/07/28 16:04:47;;;;;;;5.90;3.40;;;;;;;;;;8433292;28;20094;-91
2022/07/28 16:08:52;;;;;;;6.75;3.30;;;;;;;;;;8434476;28;20055;-82
2022/07/28 16:12:58;;;;;;;8.25;5.50;;;;;;;;;;8421168;28;20702;-81
2022/07/28 16:17:03;;;;;;;7.43;3.83;;;;;;;;;;8412712;28;20158;-82
2022/07/28 16:21:10;;;;;;;5.65;2.05;;;;;;;;;;8433259;28;20048;-87
2022/07/28 16:25:15;;;;;;;2.97;1.83;;;;;;;;;;8428235;28;20048;-83
2022/07/28 16:29:19;;;;;;;3.72;2.17;;;;;;;;;;8435837;28;20047;-82
2022/07/28 16:33:25;;;;;;;5.78;1.50;;;;;;;;;;8423579;28;20067;-81
2022/07/28 16:37:32;;;;;;;2.28;1.65;;;;;;;;;;8426786;28;20055;-82
2022/07/28 16:41:37;;;;;;;2.42;1.60;;;;;;;;;;8415857;28;20051;-82
2022/07/28 16:45:41;;;;;;;4.18;1.95;;;;;;;;;;8427171;28;20048;-81
2022/07/28 16:49:44;;;;;;;2.75;1.60;;;;;;;;;;8416293;28;20040;-81
2022/07/28 16:53:52;;;;;;;4.15;2.17;;;;;;;;;;8423494;28;20059;-81
2022/07/28 16:57:56;;;;;;;7.50;3.97;;;;;;;;;;8426071;28;20514;-81
2022/07/28 17:02:08;;;;;;;17.73;12.15;;;;;;;;;;8405696;28;20058;-82
2022/07/28 17:06:26;;;;;;;4.15;2.20;;;;;;;;;;8421935;28;20051;-82
2022/07/28 17:11:11;;;;;;;14.43;7.80;;;;;;;;;;8410756;28;20131;-82
2022/07/28 17:15:27;;;;;;;3.47;2.17;;;;;;;;;;8412038;28;20100;-82
2022/07/28 17:19:37;;;;;;;3.08;1.73;;;;;;;;;;8426094;28;20059;-82
2022/07/28 17:23:47;;;;;;;2.90;1.40;;;;;;;;;;8425672;28;20059;-82
2022/07/28 17:27:56;;;;;;;2.10;1.40;;;;;;;;;;8426574;28;20079;-90
2022/07/28 17:32:05;;;;;;;6.20;1.92;;;;;;;;;;8426008;28;20052;-82
2022/07/28 17:36:19;;;;;;;3.33;1.50;;;;;;;;;;8425683;28;20055;-83
2022/07/28 17:40:41;;;;;;;5.40;1.60;;;;;;;;;;8425322;28;20048;-85
2022/07/28 17:44:52;;;;;;;2.08;1.52;;;;;;;;;;8425519;28;20420;-83
2022/07/28 17:49:03;;;;;;;3.65;1.60;;;;;;;;;;8424653;28;20097;-85
2022/07/28 17:53:19;;;;;;;2.10;1.73;;;;;;;;;;8425308;28;20048;-85
2022/07/28 17:57:29;;;;;;;3.53;1.70;;;;;;;;;;8425239;28;20036;-83
2022/07/28 18:07:08;;;;;;;4.93;2.13;;;;;;;;;;8404209;28;20040;-84
2022/07/28 18:11:39;;;;;;;8.32;1.83;;;;;;;;;;8429145;28;20036;-82
2022/07/28 18:16:11;;;;;;;2.65;1.70;;;;;;;;;;8410789;28;20535;-83
2022/07/28 18:20:31;;;;;;;2.28;1.80;;;;;;;;;;8412830;28;20123;-86
2022/07/28 18:24:55;;;;;;;1.70;1.42;;;;;;;;;;8419034;28;20124;-82
2022/07/28 18:29:01;;;;;;;7.47;2.30;;;;;;;;;;8429053;28;20055;-82
2022/07/28 18:33:06;;;;;;;4.32;2.13;;;;;;;;;;8429333;28;20070;-81
2022/07/28 18:37:12;;;;;;;3.17;1.92;;;;;;;;;;8429706;28;20040;-90
2022/07/28 18:41:18;;;;;;;7.18;2.15;;;;;;;;;;8430022;28;20047;-81
2022/07/28 18:45:23;;;;;;;14.45;3.33;;;;;;;;;;8429588;28;20055;-81
2022/07/28 18:49:27;;;;;;;8.40;2.67;;;;;;;;;;8429505;28;20039;-81
2022/07/28 18:53:33;;;;;;;5.28;2.25;;;;;;;;;;8416333;28;20549;-81
2022/07/28 18:57:37;;;;;;;6.18;2.25;;;;;;;;;;8416003;28;20154;-81
2022/07/28 19:01:41;;;;;;;5.65;2.33;;;;;;;;;;8429482;28;20058;-81
2022/07/28 19:05:44;;;;;;;3.65;2.20;;;;;;;;;;8429416;28;20067;-81
2022/07/28 19:09:49;;;;;;;3.60;2.30;;;;;;;;;;8429195;28;20048;-81
2022/07/28 19:14:03;;;;;;;3.42;2.40;;;;;;;;;;8429312;28;20044;-81
2022/07/28 19:18:10;;;;;;;4.35;2.58;;;;;;;;;;8432241;28;20040;-82
2022/07/28 19:22:14;;;;;;;7.07;2.58;;;;;;;;;;8429470;28;20381;-81
2022/07/28 19:26:20;;;;;;;5.97;2.90;;;;;;;;;;8434044;28;20072;-81
2022/07/28 19:30:24;;;;;;;5.63;3.00;;;;;;;;;;8435033;28;20046;-82
2022/07/28 19:34:28;;;;;;;7.90;3.50;;;;;;;;;;8435105;28;20044;-82
2022/07/28 19:38:31;;;;;;;6.32;3.75;;;;;;;;;;8434853;28;20044;-82
2022/07/28 19:42:37;;;;;;;10.10;3.67;;;;;;;;;;8434770;28;20043;-81
2022/07/28 19:46:42;;;;;;;7.72;3.83;;;;;;;;;;8434750;28;20052;-82
2022/07/28 19:50:48;;;;;;;8.27;4.00;;;;;;;;;;8434553;28;20101;-81
2022/07/28 19:54:51;;;;;;;10.77;5.38;;;;;;;;;;8435127;28;20055;-91
2022/07/28 19:58:57;;;;;;;8.55;4.22;;;;;;;;;;8434172;28;20048;-81
2022/07/28 20:03:00;;;;;;;7.45;4.10;;;;;;;;;;8434329;28;20036;-81
2022/07/28 20:07:04;;;;;;;11.57;4.18;;;;;;;;;;8434608;28;20052;-81
2022/07/28 20:11:07;;;;;;;7.97;3.97;;;;;;;;;;8433828;28;20044;-83
2022/07/28 20:15:13;;;;;;;6.57;4.43;;;;;;;;;;8433783;28;20400;-82
2022/07/28 20:19:16;;;;;;;6.00;3.15;;;;;;;;;;8434604;28;20040;-81
2022/07/28 20:23:20;;;;;;;7.22;3.65;;;;;;;;;;8433268;28;20404;-82
2022/07/28 20:27:23;;;;;;;5.57;3.40;;;;;;;;;;8433344;28;20048;-82
2022/07/28 20:31:28;;;;;;;5.55;2.70;;;;;;;;;;8433352;28;20048;-81
2022/07/28 20:35:32;;;;;;;8.27;4.15;;;;;;;;;;8433140;28;20085;-81
2022/07/28 20:39:36;;;;;;;6.35;3.40;;;;;;;;;;8433062;28;20181;-82
2022/07/28 20:43:39;;;;;;;7.80;4.05;;;;;;;;;;8432724;28;20070;-82
2022/07/28 20:47:44;;;;;;;7.20;3.85;;;;;;;;;;8432889;28;20063;-82
2022/07/28 20:51:48;;;;;;;8.20;3.97;;;;;;;;;;8432645;28;20100;-81
2022/07/28 20:55:52;;;;;;;8.25;3.85;;;;;;;;;;8432365;28;20059;-81
2022/07/28 20:59:58;;;;;;;8.10;3.40;;;;;;;;;;8432404;28;20384;-81
2022/07/28 21:04:04;;;;;;;6.95;4.07;;;;;;;;;;8432363;28;20044;-82
2022/07/28 21:08:07;;;;;;;7.65;4.00;;;;;;;;;;8432166;28;20048;-82
2022/07/28 21:12:10;;;;;;;5.53;3.13;;;;;;;;;;8431868;28;20036;-81
2022/07/28 21:16:15;;;;;;;5.95;2.95;;;;;;;;;;8431930;28;20044;-81
2022/07/28 21:20:20;;;;;;;5.28;3.05;;;;;;;;;;8432271;28;20052;-81
2022/07/28 21:24:23;;;;;;;5.90;3.10;;;;;;;;;;8431610;28;20059;-81
2022/07/28 21:32:46;;;;;;;5.78;3.58;;;;;;;;;;8431772;28;20134;-81
2022/07/28 21:36:51;;;;;;;6.72;3.95;;;;;;;;;;8431438;28;20476;-82
2022/07/28 21:40:53;;;;;;;4.55;2.88;;;;;;;;;;8430706;28;20051;-81
2022/07/28 21:44:56;;;;;;;5.47;3.40;;;;;;;;;;8431103;28;20044;-82
2022/07/28 21:49:00;;;;;;;6.10;3.03;;;;;;;;;;8429133;28;20131;-81
2022/07/28 21:53:05;;;;;;;4.97;2.63;;;;;;;;;;8430785;28;20040;-91
2022/07/28 21:57:09;;;;;;;5.78;3.00;;;;;;;;;;8412708;28;20071;-88
2022/07/28 22:01:12;;;;;;;5.85;3.03;;;;;;;;;;8430417;28;20044;-82
2022/07/28 22:05:14;;;;;;;4.80;2.67;;;;;;;;;;8429386;28;20051;-81
2022/07/28 22:09:18;;;;;;;4.82;2.22;;;;;;;;;;8430646;28;20043;-81
2022/07/28 22:13:21;;;;;;;3.47;2.13;;;;;;;;;;8427471;28;20036;-81
2022/07/28 22:17:24;;;;;;;4.13;2.50;;;;;;;;;;8418168;28;20455;-82
2022/07/28 22:21:31;;;;;;;5.72;2.60;;;;;;;;;;8415522;28;20040;-82
2022/07/28 22:25:37;;;;;;;5.45;2.72;;;;;;;;;;8415934;28;20055;-82
2022/07/28 22:29:42;;;;;;;5.28;3.00;;;;;;;;;;8430055;28;20062;-82
2022/07/28 22:33:46;;;;;;;3.83;2.50;;;;;;;;;;8418460;28;20480;-83
2022/07/28 22:37:51;;;;;;;2.95;2.28;;;;;;;;;;8404725;28;20048;-85
2022/07/28 22:41:59;;;;;;;3.63;2.33;;;;;;;;;;8429537;28;20048;-83
2022/07/28 22:46:06;;;;;;;5.10;2.60;;;;;;;;;;8429096;28;20093;-82
2022/07/28 22:50:13;;;;;;;4.95;2.65;;;;;;;;;;8415354;28;20051;-83
2022/07/28 22:54:18;;;;;;;4.22;2.40;;;;;;;;;;8434316;28;20097;-83
2022/07/28 22:58:27;;;;;;;5.55;2.40;;;;;;;;;;8435966;28;20044;-82
2022/07/28 23:02:31;;;;;;;4.22;2.53;;;;;;;;;;8434278;28;20076;-82
2022/07/28 23:06:38;;;;;;;3.95;2.45;;;;;;;;;;8402367;28;20060;-83
2022/07/28 23:10:44;;;;;;;6.05;2.85;;;;;;;;;;8429585;28;20526;-83
2022/07/28 23:14:52;;;;;;;3.63;2.42;;;;;;;;;;8435634;28;20051;-83
2022/07/28 23:18:59;;;;;;;6.50;2.60;;;;;;;;;;8429081;28;20036;-83
2022/07/28 23:23:08;;;;;;;3.45;2.40;;;;;;;;;;8421017;28;20470;-83
2022/07/28 23:27:13;;;;;;;3.03;2.30;;;;;;;;;;8435631;28;20521;-83
2022/07/28 23:31:18;;;;;;;4.28;2.50;;;;;;;;;;8435152;28;20040;-82
2022/07/28 23:35:21;;;;;;;5.22;2.58;;;;;;;;;;8435156;28;20044;-88
2022/07/28 23:39:23;;;;;;;7.35;2.78;;;;;;;;;;8430699;28;20051;-82
2022/07/28 23:43:28;;;;;;;6.68;3.47;;;;;;;;;;8434640;28;20506;-82
2022/07/28 23:47:33;;;;;;;5.45;2.78;;;;;;;;;;8424071;28;20131;-82
2022/07/28 23:51:35;;;;;;;4.57;2.58;;;;;;;;;;8435312;28;20051;-81
2022/07/28 23:55:38;;;;;;;4.15;2.60;;;;;;;;;;8433926;28;20051;-82
2022/07/28 23:59:41;;;;;;;4.75;2.67;;;;;;;;;;8434702;28;20434;-82
